Archival Weather

Fukuoka

Fukuoka, Japan (RJFF)

Report from: Tuesday, August 16, 2022 7:00 PM JST
Current time: Sunday, November 27, 2022 6:56 PM JST

Current weather
Weather history
Weather forecast

Present weatherLight rain showers, light thunderstorm with rain
Temperature27.0°C (80.6°F)
Heat index30.6°C (87.0°F)
Dew point25.0°C (77.0°F)
Winds 9 kts (4.6 m/s, 10.4 mph) South-Southeast (150°)
Visibility6.2 mi. (10 km)
Clouds Few clouds 100 ft. (30 m)
Few clouds with cumulonimbus 3,000 ft. (914 m)
Scattered clouds 4,000 ft. (1,219 m)
Ceiling: Broken clouds 4,500 ft. (1,372 m)
Altimeter29.74 in.Hg (1007 mB)
Relative humidity89 %
Density altitude2,017 ft. (615 m)
Flight conditions Visual Meteorological Conditions
Raw dataRJFF 161000Z 15009KT 9999 -SHRA FEW001 FEW030CB SCT040 BKN045 27/25 Q1007 TEMPO 4000 -TSRA BR
An error has occurred. This application may no longer respond until reloaded. Reload 🗙